Time;durP1;ratioP1;P1;durP2;ratioP2;P2;SDS_P1;SDS_P2;PMS_P1;PMS_P2;Temp;Humidity;BMP_temperature;BMP_pressure;BME280_temperature;BME280_humidity;BME280_pressure;Samples;Min_cycle;Max_cycle;Signal;HPM_P1;HPM_P2
2022/07/29 00:00:12;;;;;;;6.53;1.88;;;;;;;17.63;100.00;101604.50;5254164;28;20020;-72
2022/07/29 00:02:43;;;;;;;6.82;2.20;;;;;;;17.60;100.00;101604.88;5253988;28;20496;-70
2022/07/29 00:05:13;;;;;;;7.65;2.40;;;;;;;17.59;100.00;101600.50;5248082;28;20020;-72
2022/07/29 00:07:44;;;;;;;7.78;2.45;;;;;;;17.51;100.00;101596.03;5247822;28;20150;-72
2022/07/29 00:10:14;;;;;;;5.78;1.95;;;;;;;17.43;100.00;101598.91;5267720;28;20027;-72
2022/07/29 00:12:45;;;;;;;10.60;2.33;;;;;;;17.42;100.00;101596.34;5254202;28;20115;-72
2022/07/29 00:15:15;;;;;;;6.95;2.15;;;;;;;17.38;100.00;101592.38;5256544;28;20029;-73
2022/07/29 00:17:46;;;;;;;6.95;2.28;;;;;;;17.38;100.00;101597.78;5246285;28;20486;-71
2022/07/29 00:20:16;;;;;;;4.38;1.75;;;;;;;17.30;100.00;101599.59;5246166;28;20111;-71
2022/07/29 00:22:47;;;;;;;8.68;2.22;;;;;;;17.25;100.00;101593.88;5260090;28;20516;-71
2022/07/29 00:25:17;;;;;;;3.75;2.05;;;;;;;17.23;100.00;101587.00;5257530;28;20035;-71
2022/07/29 00:27:48;;;;;;;6.40;2.00;;;;;;;17.21;100.00;101587.16;5266752;28;20053;-72
2022/07/29 00:30:18;;;;;;;5.45;2.05;;;;;;;17.19;100.00;101583.00;5254436;28;20028;-72
2022/07/29 00:32:49;;;;;;;5.45;2.30;;;;;;;17.17;100.00;101579.59;5260072;28;20446;-72
2022/07/29 00:38:09;;;;;;;6.43;1.95;;;;;;;17.16;100.00;101567.94;5246090;28;20032;-72
2022/07/29 00:40:41;;;;;;;9.27;2.47;;;;;;;17.15;100.00;101573.56;5259670;28;20103;-71
2022/07/29 00:43:13;;;;;;;5.22;2.28;;;;;;;17.13;100.00;101562.06;5257647;28;20028;-72
2022/07/29 00:45:44;;;;;;;4.00;2.30;;;;;;;17.12;100.00;101563.94;5247266;28;20027;-71
2022/07/29 00:48:15;;;;;;;8.45;2.17;;;;;;;17.09;100.00;101565.16;5246013;28;20037;-71
2022/07/29 00:50:45;;;;;;;6.50;2.22;;;;;;;17.09;100.00;101567.03;5252094;28;20489;-71
2022/07/29 00:53:22;;;;;;;9.95;2.33;;;;;;;17.09;100.00;101562.44;5266368;28;20028;-72
2022/07/29 00:55:54;;;;;;;8.02;1.88;;;;;;;17.05;100.00;101555.72;5244828;28;20095;-72
2022/07/29 00:58:26;;;;;;;6.38;2.17;;;;;;;17.01;100.00;101550.88;5261117;28;20599;-72
2022/07/29 01:00:57;;;;;;;4.53;1.83;;;;;;;16.97;100.00;101549.59;5266634;28;20158;-72
2022/07/29 01:03:28;;;;;;;5.43;2.03;;;;;;;16.94;100.00;101549.97;5254563;28;20025;-72
2022/07/29 01:05:59;;;;;;;13.10;2.58;;;;;;;16.92;100.00;101544.75;5237989;28;20028;-71
2022/07/29 01:08:32;;;;;;;10.18;2.17;;;;;;;16.91;100.00;101543.03;5253228;28;20103;-71
2022/07/29 01:11:03;;;;;;;4.88;2.05;;;;;;;16.90;100.00;101543.25;5265095;28;20024;-72
2022/07/29 01:13:34;;;;;;;7.13;2.33;;;;;;;16.89;100.00;101552.41;5254509;28;20035;-72
2022/07/29 01:16:13;;;;;;;7.15;2.15;;;;;;;16.87;100.00;101547.19;5249815;28;20033;-73
2022/07/29 01:18:46;;;;;;;6.72;2.28;;;;;;;16.87;100.00;101552.59;5256951;28;20084;-72
2022/07/29 01:21:46;;;;;;;4.60;2.10;;;;;;;16.88;100.00;101550.75;5256705;28;20382;-72
2022/07/29 01:24:33;;;;;;;5.60;1.80;;;;;;;16.88;100.00;101548.88;5247916;28;20029;-72
2022/07/29 01:27:31;;;;;;;9.05;2.65;;;;;;;16.89;100.00;101555.13;5245203;28;20491;-71
2022/07/29 01:30:02;;;;;;;5.72;2.55;;;;;;;16.87;100.00;101547.19;5246273;28;20028;-71
2022/07/29 01:32:36;;;;;;;6.50;2.53;;;;;;;16.85;100.00;101545.69;5252309;28;20439;-72
2022/07/29 01:35:23;;;;;;;12.52;2.35;;;;;;;16.83;100.00;101543.19;5252880;28;20623;-72
2022/07/29 01:38:09;;;;;;;6.85;1.90;;;;;;;16.78;100.00;101546.44;5254233;28;20078;-71
2022/07/29 01:41:12;;;;;;;4.55;1.60;;;;;;;16.76;100.00;101539.53;5246903;28;20024;-71
2022/07/29 01:43:51;;;;;;;3.88;2.00;;;;;;;16.73;100.00;101538.06;5244889;28;20533;-70
2022/07/29 01:46:39;;;;;;;9.40;2.10;;;;;;;16.71;100.00;101537.38;5244679;28;20028;-70
2022/07/29 01:49:15;;;;;;;7.95;1.83;;;;;;;16.69;100.00;101534.00;5240448;28;20055;-72
2022/07/29 01:51:50;;;;;;;6.75;2.35;;;;;;;16.71;100.00;101533.81;5247895;28;20032;-72
2022/07/29 01:54:35;;;;;;;5.45;1.92;;;;;;;16.69;100.00;101527.75;5243876;28;20029;-73
2022/07/29 01:57:09;;;;;;;6.43;2.10;;;;;;;16.66;100.00;101528.97;5258651;28;20504;-73
2022/07/29 01:59:43;;;;;;;10.37;2.03;;;;;;;16.62;100.00;101526.81;5264018;28;20073;-72
2022/07/29 02:02:16;;;;;;;6.13;1.88;;;;;;;16.58;100.00;101523.66;5245159;28;20752;-71
2022/07/29 02:04:49;;;;;;;8.38;2.50;;;;;;;16.57;100.00;101527.41;5245954;28;20023;-71
2022/07/29 02:07:21;;;;;;;5.57;1.92;;;;;;;16.56;100.00;101523.00;5256394;28;20024;-70
2022/07/29 02:09:54;;;;;;;8.60;1.83;;;;;;;16.53;100.00;101526.94;5265534;28;20016;-71
2022/07/29 02:12:28;;;;;;;4.45;2.15;;;;;;;16.50;100.00;101529.19;5252617;28;20035;-72
2022/07/29 02:15:01;;;;;;;5.85;2.00;;;;;;;16.47;100.00;101541.25;5257751;28;20020;-71
2022/07/29 02:17:39;;;;;;;4.10;1.60;;;;;;;16.41;100.00;101527.59;5258038;28;20477;-71
2022/07/29 02:20:09;;;;;;;6.28;2.10;;;;;;;16.35;100.00;101526.47;5248588;28;20025;-70
2022/07/29 02:22:42;;;;;;;4.63;2.00;;;;;;;16.28;100.00;101525.56;5244388;28;20033;-71
2022/07/29 02:25:14;;;;;;;4.63;2.20;;;;;;;16.21;100.00;101530.03;5256043;28;20027;-71
2022/07/29 02:27:47;;;;;;;4.97;2.20;;;;;;;16.12;100.00;101526.59;5245760;28;20047;-71
2022/07/29 02:30:19;;;;;;;10.60;2.30;;;;;;;16.03;100.00;101523.13;5244552;28;20024;-70
2022/07/29 02:32:51;;;;;;;6.65;2.53;;;;;;;15.96;100.00;101515.91;5265175;28;20488;-71
2022/07/29 02:35:23;;;;;;;4.45;2.40;;;;;;;15.89;100.00;101513.13;5263273;28;20020;-71
2022/07/29 02:40:44;;;;;;;4.50;2.40;;;;;;;15.82;100.00;101528.44;5259549;28;20025;-72
2022/07/29 02:43:17;;;;;;;5.18;2.13;;;;;;;15.84;100.00;101517.41;5257912;28;20047;-71
2022/07/29 02:45:52;;;;;;;11.35;2.20;;;;;;;15.75;100.00;101528.31;5231105;28;20478;-71
2022/07/29 02:48:36;;;;;;;6.35;2.05;;;;;;;15.67;100.00;101524.84;5243650;28;20028;-71
2022/07/29 02:51:13;;;;;;;5.55;2.00;;;;;;;15.56;100.00;101526.06;5255317;28;20020;-72
2022/07/29 02:53:51;;;;;;;8.60;1.85;;;;;;;15.53;100.00;101526.47;5244277;28;20028;-71
2022/07/29 02:56:27;;;;;;;4.53;1.95;;;;;;;15.54;100.00;101528.13;5244903;28;20059;-71
2022/07/29 02:59:02;;;;;;;11.00;2.45;;;;;;;15.51;100.00;101523.06;5265104;28;20039;-71
2022/07/29 03:01:35;;;;;;;4.45;2.25;;;;;;;15.54;100.00;101520.03;5247630;28;20724;-72
2022/07/29 03:04:09;;;;;;;3.15;2.15;;;;;;;15.52;100.00;101524.78;5232714;28;20029;-71
2022/07/29 03:06:40;;;;;;;3.45;2.10;;;;;;;15.45;100.00;101524.66;5242395;28;20024;-71
2022/07/29 03:09:13;;;;;;;6.60;2.75;;;;;;;15.41;100.00;101517.06;5244267;28;20494;-71
2022/07/29 03:11:44;;;;;;;6.50;2.45;;;;;;;15.39;100.00;101521.84;5238652;28;20074;-71
2022/07/29 03:14:17;;;;;;;7.03;2.13;;;;;;;15.26;100.00;101520.59;5264261;28;20031;-70
2022/07/29 03:16:48;;;;;;;4.38;2.13;;;;;;;15.24;100.00;101527.19;5256066;28;20032;-71
2022/07/29 03:19:20;;;;;;;3.30;2.00;;;;;;;15.18;100.00;101522.50;5246681;28;20064;-72
2022/07/29 03:21:51;;;;;;;3.47;1.90;;;;;;;15.15;100.00;101521.00;5246749;28;20090;-70
2022/07/29 03:24:40;;;;;;;8.80;2.67;;;;;;;15.12;100.00;101518.66;5246988;28;20111;-71
2022/07/29 03:27:11;;;;;;;6.38;2.50;;;;;;;15.10;100.00;101509.06;5261172;28;20028;-72
2022/07/29 03:29:41;;;;;;;8.85;2.58;;;;;;;15.13;100.00;101512.25;5247689;28;20695;-71
2022/07/29 03:32:12;;;;;;;8.57;2.97;;;;;;;15.10;100.00;101511.75;5247660;28;20031;-70
2022/07/29 03:34:42;;;;;;;6.78;2.55;;;;;;;15.09;100.00;101508.22;5247425;28;20016;-70
2022/07/29 03:37:13;;;;;;;8.07;2.70;;;;;;;15.09;100.00;101510.06;5261559;28;20021;-70
2022/07/29 03:39:45;;;;;;;5.85;2.75;;;;;;;15.08;100.00;101501.13;5247489;28;20039;-70
2022/07/29 03:42:19;;;;;;;4.72;2.33;;;;;;;15.03;100.00;101515.19;5252481;28;20024;-71
2022/07/29 03:44:52;;;;;;;8.73;3.38;;;;;;;14.99;100.00;101513.84;5268103;28;20103;-72
2022/07/29 03:47:27;;;;;;;5.53;2.88;;;;;;;14.95;100.00;101522.47;5268278;28;20020;-72
2022/07/29 03:50:01;;;;;;;7.25;2.83;;;;;;;14.88;100.00;101522.38;5267816;28;20020;-72
2022/07/29 03:52:32;;;;;;;7.20;2.80;;;;;;;14.80;100.00;101519.69;5267864;28;20030;-72
2022/07/29 03:55:04;;;;;;;6.10;2.85;;;;;;;14.71;100.00;101520.78;5267902;28;20028;-72
2022/07/29 03:57:35;;;;;;;4.18;2.70;;;;;;;14.66;100.00;101521.31;5243627;28;20047;-71
2022/07/29 04:00:07;;;;;;;10.05;3.00;;;;;;;14.64;100.00;101519.78;5246956;28;20025;-71
2022/07/29 04:02:39;;;;;;;3.70;2.55;;;;;;;14.65;100.00;101507.97;5247260;28;20044;-71
2022/07/29 04:05:12;;;;;;;7.63;3.00;;;;;;;14.64;100.00;101515.25;5232934;28;20099;-72
2022/07/29 04:07:44;;;;;;;4.32;2.95;;;;;;;14.66;100.00;101528.56;5246881;28;20052;-71
2022/07/29 04:10:16;;;;;;;8.95;2.97;;;;;;;14.62;100.00;101527.25;5255330;28;20433;-71
2022/07/29 04:12:47;;;;;;;4.32;2.92;;;;;;;14.56;100.00;101525.22;5251337;28;20024;-71
2022/07/29 04:15:18;;;;;;;8.20;3.42;;;;;;;14.50;100.00;101527.59;5246385;28;20035;-71
2022/07/29 04:17:48;;;;;;;7.63;3.03;;;;;;;14.43;100.00;101534.72;5246617;28;20032;-71
2022/07/29 04:20:19;;;;;;;9.02;3.92;;;;;;;14.38;100.00;101533.56;5250041;28;20025;-72
2022/07/29 04:22:49;;;;;;;6.20;3.17;;;;;;;14.33;100.00;101538.63;5246677;28;20024;-71
2022/07/29 04:25:20;;;;;;;8.88;3.50;;;;;;;14.30;100.00;101544.38;5257848;28;20505;-70
2022/07/29 04:28:00;;;;;;;6.32;3.45;;;;;;;14.28;100.00;101546.41;5266547;28;20028;-70
2022/07/29 04:30:31;;;;;;;5.63;2.90;;;;;;;14.28;100.00;101551.81;5267345;28;20026;-71
2022/07/29 04:33:05;;;;;;;15.98;3.90;;;;;;;14.30;100.00;101547.06;5258613;28;20033;-70
2022/07/29 04:35:37;;;;;;;6.72;3.35;;;;;;;14.32;100.00;101553.16;5259327;28;20021;-70
2022/07/29 04:38:08;;;;;;;11.88;3.28;;;;;;;14.31;100.00;101551.44;5257507;28;20028;-71
2022/07/29 04:40:38;;;;;;;11.15;3.33;;;;;;;14.26;100.00;101560.09;5262552;28;20359;-71
2022/07/29 04:43:09;;;;;;;6.28;3.70;;;;;;;14.22;100.00;101567.69;5246712;28;20513;-71
2022/07/29 04:45:39;;;;;;;10.27;3.78;;;;;;;14.19;100.00;101568.00;5245596;28;20382;-71
2022/07/29 04:48:09;;;;;;;7.00;3.78;;;;;;;14.18;100.00;101568.19;5245942;28;20111;-71
2022/07/29 04:50:40;;;;;;;12.50;3.03;;;;;;;14.22;100.00;101566.84;5259611;28;20032;-70
2022/07/29 04:53:11;;;;;;;5.63;3.28;;;;;;;14.33;100.00;101571.84;5259788;28;20027;-71
2022/07/29 04:55:41;;;;;;;7.82;3.30;;;;;;;14.44;100.00;101566.09;5245337;28;20033;-71
2022/07/29 04:58:12;;;;;;;7.70;3.85;;;;;;;14.54;100.00;101565.91;5258243;28;20020;-70
2022/07/29 05:00:42;;;;;;;5.78;3.45;;;;;;;14.70;100.00;101563.13;5255565;28;20028;-72
2022/07/29 05:03:13;;;;;;;6.22;3.38;;;;;;;14.83;100.00;101569.84;5245978;28;20031;-73
2022/07/29 05:05:43;;;;;;;8.80;3.65;;;;;;;14.93;100.00;101567.75;5235795;28;20358;-71
2022/07/29 05:08:14;;;;;;;8.18;3.03;;;;;;;15.05;100.00;101574.44;5251052;28;20024;-71
2022/07/29 05:10:45;;;;;;;7.80;3.45;;;;;;;15.15;100.00;101575.06;5253986;28;20016;-71
2022/07/29 05:13:15;;;;;;;5.93;3.47;;;;;;;15.18;100.00;101566.59;5245113;28;20055;-71
2022/07/29 05:15:46;;;;;;;5.45;3.30;;;;;;;15.20;100.00;101571.81;5245185;28;20029;-70
2022/07/29 05:18:16;;;;;;;13.75;3.55;;;;;;;15.24;100.00;101570.44;5245854;28;20028;-70
2022/07/29 05:20:47;;;;;;;7.38;3.20;;;;;;;15.25;100.00;101567.56;5244810;28;20021;-71
2022/07/29 05:23:19;;;;;;;7.60;3.53;;;;;;;15.31;100.00;101575.97;5254450;28;20044;-70
2022/07/29 05:25:49;;;;;;;8.23;3.35;;;;;;;15.36;100.00;101576.25;5249141;28;20551;-70
2022/07/29 05:28:20;;;;;;;6.93;3.22;;;;;;;15.44;100.00;101574.34;5245352;28;20086;-70
2022/07/29 05:30:50;;;;;;;7.40;3.60;;;;;;;15.60;100.00;101580.66;5245650;28;20025;-70
2022/07/29 05:33:21;;;;;;;9.15;4.00;;;;;;;15.65;100.00;101581.81;5245419;28;20500;-71
2022/07/29 05:35:51;;;;;;;7.10;3.45;;;;;;;15.74;100.00;101588.84;5249849;28;20028;-70
2022/07/29 05:38:22;;;;;;;5.07;3.28;;;;;;;15.87;100.00;101595.53;5265852;28;20024;-71
2022/07/29 05:40:52;;;;;;;5.90;3.35;;;;;;;15.93;100.00;101590.22;5245744;28;20029;-71
2022/07/29 05:43:23;;;;;;;5.28;3.15;;;;;;;16.08;100.00;101595.66;5258637;28;20497;-71
2022/07/29 05:45:54;;;;;;;5.88;2.88;;;;;;;16.04;100.00;101597.03;5252391;28;20039;-70
2022/07/29 05:48:25;;;;;;;8.07;3.00;;;;;;;16.04;100.00;101599.75;5249879;28;20031;-71
2022/07/29 05:50:55;;;;;;;4.90;3.00;;;;;;;16.04;100.00;101589.75;5244731;28;20028;-70
2022/07/29 05:53:26;;;;;;;5.43;3.70;;;;;;;16.14;100.00;101599.47;5258542;28;20428;-71
2022/07/29 05:55:56;;;;;;;6.85;3.45;;;;;;;16.19;100.00;101603.31;5240339;28;20060;-71
2022/07/29 05:58:27;;;;;;;7.68;3.83;;;;;;;16.25;100.00;101599.03;5242199;28;20025;-71
2022/07/29 06:01:00;;;;;;;5.63;3.28;;;;;;;16.37;100.00;101608.38;5257254;28;20102;-71
2022/07/29 06:03:30;;;;;;;7.40;3.60;;;;;;;16.68;100.00;101607.34;5239303;28;20103;-71
2022/07/29 06:06:01;;;;;;;6.85;3.58;;;;;;;17.24;100.00;101619.34;5237190;28;20490;-71
2022/07/29 06:08:33;;;;;;;5.35;3.00;;;;;;;18.00;100.00;101616.97;5244616;28;20541;-73
2022/07/29 06:11:05;;;;;;;4.75;3.30;;;;;;;18.81;100.00;101619.19;5225093;28;20021;-73
2022/07/29 06:13:35;;;;;;;8.30;3.45;;;;;;;19.63;100.00;101627.25;5241136;28;20028;-72
2022/07/29 06:16:06;;;;;;;7.10;3.00;;;;;;;20.00;100.00;101629.56;5237825;28;20046;-73
2022/07/29 06:18:36;;;;;;;7.55;3.63;;;;;;;20.29;100.00;101623.69;5263788;28;20340;-73
2022/07/29 06:21:09;;;;;;;6.70;3.28;;;;;;;20.28;100.00;101629.31;5250071;28;20470;-73
2022/07/29 06:23:40;;;;;;;6.65;3.47;;;;;;;20.28;100.00;101638.34;5255479;28;20149;-71
2022/07/29 06:26:10;;;;;;;7.18;3.20;;;;;;;20.61;100.00;101632.03;5249751;28;20491;-71
2022/07/29 06:28:41;;;;;;;10.90;3.25;;;;;;;20.37;100.00;101631.63;5250762;28;20036;-71
2022/07/29 06:31:11;;;;;;;7.30;3.00;;;;;;;20.17;100.00;101622.63;5243222;28;20023;-71
2022/07/29 06:33:42;;;;;;;6.70;3.00;;;;;;;19.98;100.00;101626.19;5243706;28;20266;-71
2022/07/29 06:36:12;;;;;;;8.10;3.38;;;;;;;19.89;100.00;101626.41;5254899;28;20107;-71
2022/07/29 06:38:43;;;;;;;8.25;3.20;;;;;;;19.84;100.00;101625.38;5255798;28;20039;-70
2022/07/29 06:41:15;;;;;;;5.68;2.97;;;;;;;19.35;100.00;101624.63;5242867;28;20062;-70
2022/07/29 06:43:46;;;;;;;6.15;3.20;;;;;;;19.49;100.00;101624.66;5246185;28;20028;-71
2022/07/29 06:46:18;;;;;;;6.13;2.95;;;;;;;20.09;100.00;101626.41;5252476;28;20040;-70
2022/07/29 06:48:49;;;;;;;4.85;3.28;;;;;;;20.40;100.00;101627.66;5241039;28;20052;-70
2022/07/29 06:51:21;;;;;;;7.60;3.70;;;;;;;20.20;100.00;101627.66;5254663;28;20032;-71
2022/07/29 06:53:52;;;;;;;7.85;3.60;;;;;;;20.18;100.00;101627.88;5256255;28;20029;-72
2022/07/29 06:56:23;;;;;;;7.18;2.97;;;;;;;20.17;100.00;101625.34;5243466;28;20411;-72
2022/07/29 06:58:53;;;;;;;7.80;3.13;;;;;;;20.55;100.00;101624.72;5246931;28;20025;-71
2022/07/29 07:01:24;;;;;;;7.97;3.08;;;;;;;21.47;100.00;101623.50;5246554;28;20117;-72
2022/07/29 07:03:54;;;;;;;10.02;3.72;;;;;;;21.97;100.00;101624.38;5237188;28;20028;-73
2022/07/29 07:06:25;;;;;;;5.90;2.90;;;;;;;22.67;100.00;101626.06;5246100;28;20020;-72
2022/07/29 07:08:55;;;;;;;8.93;3.22;;;;;;;23.77;100.00;101631.38;5267968;28;20024;-72
2022/07/29 07:11:26;;;;;;;6.35;2.65;;;;;;;24.49;100.00;101631.19;5264119;28;20024;-71
2022/07/29 07:13:57;;;;;;;8.77;3.60;;;;;;;24.93;99.37;101642.56;5245615;28;20401;-72
2022/07/29 07:16:27;;;;;;;8.48;3.20;;;;;;;24.35;100.00;101641.56;5251883;28;20032;-72
2022/07/29 07:18:58;;;;;;;8.38;3.10;;;;;;;24.87;100.00;101649.88;5253234;28;20100;-70
2022/07/29 07:21:29;;;;;;;11.25;3.67;;;;;;;25.02;100.00;101652.94;5258709;28;20084;-72
2022/07/29 07:24:00;;;;;;;5.28;2.90;;;;;;;25.18;100.00;101653.28;5266862;28;20396;-71
2022/07/29 07:26:30;;;;;;;8.70;3.28;;;;;;;25.47;98.03;101651.38;5265869;28;20028;-72
2022/07/29 07:29:01;;;;;;;8.57;3.10;;;;;;;25.97;91.46;101656.13;5253551;28;20479;-72
2022/07/29 07:31:31;;;;;;;7.25;3.40;;;;;;;25.56;95.33;101658.97;5267559;28;20028;-72
2022/07/29 07:34:02;;;;;;;6.38;2.95;;;;;;;25.41;96.47;101650.44;5253175;28;20016;-71
2022/07/29 07:36:32;;;;;;;11.50;3.65;;;;;;;25.94;95.48;101656.63;5254630;28;20052;-73
2022/07/29 07:39:04;;;;;;;10.27;3.50;;;;;;;26.16;96.21;101664.97;5259276;28;20021;-73
2022/07/29 07:41:35;;;;;;;7.97;3.05;;;;;;;26.93;86.63;101667.78;5245824;28;20035;-72
2022/07/29 07:44:06;;;;;;;7.95;3.40;;;;;;;26.44;91.87;101659.38;5244843;28;20111;-70
2022/07/29 07:46:36;;;;;;;9.18;3.35;;;;;;;27.27;86.34;101651.16;5245289;28;20021;-70
2022/07/29 07:49:06;;;;;;;5.32;3.53;;;;;;;26.93;93.35;101647.66;5245911;28;20395;-70
2022/07/29 07:51:38;;;;;;;6.05;2.50;;;;;;;27.19;85.46;101654.34;5259877;28;20077;-70
2022/07/29 07:54:09;;;;;;;7.43;4.05;;;;;;;27.26;84.58;101654.97;5252134;28;20031;-70
2022/07/29 07:56:39;;;;;;;6.63;3.25;;;;;;;27.06;87.92;101647.25;5251305;28;20031;-71
2022/07/29 07:59:10;;;;;;;11.40;2.97;;;;;;;28.19;77.19;101652.03;5245042;28;20123;-70
2022/07/29 08:01:41;;;;;;;5.65;2.78;;;;;;;27.95;76.37;101648.78;5263150;28;20432;-71
2022/07/29 08:04:13;;;;;;;7.10;2.60;;;;;;;27.80;78.41;101647.56;5240287;28;20057;-71
2022/07/29 08:06:43;;;;;;;6.40;3.08;;;;;;;27.93;76.32;101651.81;5251545;28;20377;-70
2022/07/29 08:09:16;;;;;;;5.93;3.15;;;;;;;27.96;74.89;101645.75;5265883;28;20024;-70
2022/07/29 08:11:46;;;;;;;6.45;2.97;;;;;;;27.54;78.23;101640.94;5231591;28;20027;-70
2022/07/29 08:14:17;;;;;;;5.15;2.78;;;;;;;27.71;77.02;101640.84;5258501;28;20115;-70
2022/07/29 08:16:47;;;;;;;6.25;2.50;;;;;;;27.83;75.39;101636.00;5256965;28;20024;-70
2022/07/29 08:19:18;;;;;;;7.07;2.70;;;;;;;27.17;86.43;101645.53;5244562;28;20031;-71
2022/07/29 08:21:48;;;;;;;6.28;2.83;;;;;;;27.23;88.73;101639.81;5254326;28;20465;-71
2022/07/29 08:27:10;;;;;;;9.15;2.42;;;;;;;28.34;79.15;101646.63;5265670;28;20055;-71
2022/07/29 08:29:41;;;;;;;4.63;2.20;;;;;;;28.59;75.39;101654.25;5265287;28;20030;-72
2022/07/29 08:32:11;;;;;;;5.30;2.53;;;;;;;28.13;78.56;101654.75;5251976;28;20391;-72
2022/07/29 08:34:44;;;;;;;6.00;2.15;;;;;;;28.49;75.95;101648.66;5255357;28;20440;-72
2022/07/29 08:37:15;;;;;;;5.45;2.25;;;;;;;28.40;77.24;101656.59;5256741;28;20029;-71
2022/07/29 08:39:46;;;;;;;11.95;2.70;;;;;;;29.29;72.59;101650.16;5244358;28;20536;-72
2022/07/29 08:42:17;;;;;;;18.90;3.60;;;;;;;29.50;69.58;101648.25;5244334;28;20024;-72
2022/07/29 08:44:48;;;;;;;6.00;2.55;;;;;;;29.04;70.37;101652.81;5256301;28;20093;-72
2022/07/29 08:47:19;;;;;;;5.05;2.35;;;;;;;28.34;73.06;101650.22;5245070;28;20552;-72
2022/07/29 08:49:50;;;;;;;5.32;2.63;;;;;;;28.17;75.92;101645.94;5257342;28;20059;-71
2022/07/29 08:52:24;;;;;;;7.05;2.22;;;;;;;28.32;73.40;101652.41;5257705;28;20028;-71
2022/07/29 08:54:55;;;;;;;7.07;2.10;;;;;;;28.48;73.15;101639.56;5245778;28;20020;-72
2022/07/29 08:57:26;;;;;;;5.05;2.60;;;;;;;28.23;74.95;101647.63;5258376;28;20050;-72
2022/07/29 09:00:00;;;;;;;5.85;2.30;;;;;;;28.65;70.89;101656.75;5247463;28;20068;-72
2022/07/29 09:02:40;;;;;;;7.80;2.60;;;;;;;28.56;73.25;101652.00;5244057;28;20097;-72
2022/07/29 09:05:10;;;;;;;4.50;2.00;;;;;;;28.29;74.55;101655.69;5229725;28;20035;-71
2022/07/29 09:07:43;;;;;;;7.53;2.63;;;;;;;28.28;79.50;101653.19;5244580;28;20024;-71
2022/07/29 09:10:14;;;;;;;6.97;1.85;;;;;;;28.93;73.83;101654.69;5258231;28;20032;-71
2022/07/29 09:12:44;;;;;;;8.32;2.50;;;;;;;28.93;74.52;101646.41;5257246;28;20473;-72
2022/07/29 09:15:15;;;;;;;3.13;2.10;;;;;;;28.57;72.31;101651.75;5251995;28;20035;-71
2022/07/29 09:17:48;;;;;;;6.78;2.70;;;;;;;28.29;74.65;101652.09;5250866;28;20024;-72
2022/07/29 09:20:22;;;;;;;3.30;1.70;;;;;;;28.15;72.63;101640.66;5253037;28;20025;-71
2022/07/29 09:22:53;;;;;;;3.67;2.00;;;;;;;27.54;74.85;101640.13;5243510;28;20035;-71
2022/07/29 09:25:42;;;;;;;8.73;2.47;;;;;;;27.38;84.96;101641.88;5255216;28;20032;-72
2022/07/29 09:28:17;;;;;;;2.47;1.98;;;;;;;28.27;72.55;101644.09;5263676;28;20035;-71
2022/07/29 09:31:08;;;;;;;3.60;2.10;;;;;;;28.18;73.13;101636.56;5251077;28;20041;-71
2022/07/29 09:33:40;;;;;;;4.53;2.28;;;;;;;28.22;71.63;101640.47;5248556;28;20082;-71
2022/07/29 09:36:11;;;;;;;4.30;1.95;;;;;;;27.90;78.17;101638.53;5242963;28;20025;-71
2022/07/29 09:38:41;;;;;;;5.30;2.17;;;;;;;28.34;73.47;101641.94;5258820;28;20023;-71
2022/07/29 09:41:13;;;;;;;3.42;2.10;;;;;;;28.14;76.54;101645.34;5255693;28;20470;-72
2022/07/29 09:43:54;;;;;;;7.05;2.65;;;;;;;28.37;75.72;101649.69;5260137;28;20024;-72
2022/07/29 09:46:25;;;;;;;7.47;1.95;;;;;;;29.19;70.32;101649.28;5262904;28;20024;-72
2022/07/29 09:49:15;;;;;;;8.98;2.30;;;;;;;28.65;69.13;101648.47;5249543;28;20028;-72
2022/07/29 09:51:45;;;;;;;4.68;2.10;;;;;;;28.72;70.64;101650.19;5247609;28;20402;-72
2022/07/29 09:54:27;;;;;;;14.25;2.58;;;;;;;28.36;72.23;101647.19;5241731;28;20025;-72
2022/07/29 09:56:58;;;;;;;5.03;2.13;;;;;;;28.55;75.20;101651.19;5254144;28;20042;-72
2022/07/29 09:59:28;;;;;;;3.55;2.40;;;;;;;28.93;72.66;101653.88;5250817;28;20016;-72
2022/07/29 10:01:59;;;;;;;4.43;2.00;;;;;;;29.45;70.94;101647.41;5262919;28;20401;-72
2022/07/29 10:04:48;;;;;;;9.15;2.13;;;;;;;29.57;68.84;101650.78;5235316;28;20067;-73
2022/07/29 10:07:19;;;;;;;4.78;1.90;;;;;;;29.76;69.19;101648.31;5233002;28;20401;-72
2022/07/29 10:09:54;;;;;;;7.07;2.05;;;;;;;29.96;64.38;101653.84;5243259;28;20013;-73
2022/07/29 10:12:25;;;;;;;3.53;1.85;;;;;;;29.73;63.93;101648.88;5255518;28;20058;-72
2022/07/29 10:14:55;;;;;;;3.45;1.90;;;;;;;29.62;66.04;101648.00;5255593;28;20392;-72
2022/07/29 10:17:26;;;;;;;5.00;1.90;;;;;;;29.45;62.43;101648.25;5256207;28;20028;-72
2022/07/29 10:19:57;;;;;;;4.05;2.05;;;;;;;28.89;67.22;101653.56;5259091;28;20029;-72
2022/07/29 10:22:27;;;;;;;5.22;1.88;;;;;;;28.50;64.81;101647.56;5256213;28;20037;-73
2022/07/29 10:24:58;;;;;;;3.45;1.60;;;;;;;28.23;64.42;101647.63;5250238;28;20062;-72
2022/07/29 10:27:28;;;;;;;4.82;2.25;;;;;;;28.08;70.47;101643.66;5250238;28;20024;-72
2022/07/29 10:30:01;;;;;;;4.95;2.17;;;;;;;28.38;64.33;101647.78;5263371;28;20024;-72
2022/07/29 10:32:46;;;;;;;7.00;1.88;;;;;;;28.11;64.22;101628.50;5257899;28;20025;-72
2022/07/29 10:35:54;;;;;;;5.53;1.98;;;;;;;27.48;67.54;101639.25;5240086;28;20032;-72
2022/07/29 10:38:52;;;;;;;8.07;1.92;;;;;;;27.67;69.84;101638.88;5246220;28;20630;-73
2022/07/29 10:41:42;;;;;;;3.60;1.85;;;;;;;27.96;68.41;101636.66;5231927;28;20033;-72
2022/07/29 10:44:17;;;;;;;3.05;2.10;;;;;;;28.41;67.21;101638.94;5254743;28;20025;-72
2022/07/29 10:46:47;;;;;;;6.15;1.70;;;;;;;28.62;65.63;101639.91;5254481;28;20031;-73
2022/07/29 10:49:21;;;;;;;3.83;1.73;;;;;;;28.87;65.86;101639.22;5250364;28;20106;-73
2022/07/29 10:51:54;;;;;;;8.15;2.53;;;;;;;28.94;63.20;101636.19;5247408;28;20031;-73
2022/07/29 10:54:35;;;;;;;4.22;1.80;;;;;;;29.18;67.53;101642.94;5251969;28;20061;-72
2022/07/29 10:57:26;;;;;;;8.63;2.00;;;;;;;29.40;65.97;101637.19;5243057;28;20052;-72
2022/07/29 11:00:08;;;;;;;4.20;2.00;;;;;;;29.38;66.51;101631.09;5255296;28;20046;-73
2022/07/29 11:02:40;;;;;;;5.32;2.42;;;;;;;29.54;62.73;101632.00;5253896;28;20024;-72
2022/07/29 11:05:17;;;;;;;6.07;2.78;;;;;;;29.05;62.85;101632.38;5240958;28;20596;-72
2022/07/29 11:08:17;;;;;;;6.00;1.95;;;;;;;29.21;64.91;101636.03;5242265;28;20036;-73
2022/07/29 11:10:49;;;;;;;9.52;2.70;;;;;;;29.57;59.37;101631.41;5242578;28;20068;-72
2022/07/29 11:13:50;;;;;;;6.88;2.10;;;;;;;29.38;63.29;101633.88;5241786;28;20486;-73
2022/07/29 11:16:22;;;;;;;7.38;2.10;;;;;;;29.45;62.97;101639.94;5254745;28;20029;-73
2022/07/29 11:19:12;;;;;;;5.10;1.88;;;;;;;29.64;57.74;101648.59;5254993;28;20452;-73
2022/07/29 11:21:47;;;;;;;3.28;1.55;;;;;;;30.04;54.62;101645.00;5249073;28;20516;-73
2022/07/29 11:24:20;;;;;;;;;;;;;;;29.48;55.32;101644.94;5248478;28;20023;-73
2022/07/29 11:27:12;;;;;;;6.25;2.05;;;;;;;29.00;54.47;101640.66;5251934;28;19908;-73
2022/07/29 11:29:55;;;;;;;4.70;1.73;;;;;;;28.44;57.87;101648.63;5229574;28;20024;-72
2022/07/29 11:32:37;;;;;;;8.23;2.40;;;;;;;28.14;61.23;101650.06;5259511;28;20055;-72
2022/07/29 11:35:21;;;;;;;4.95;1.70;;;;;;;28.18;58.62;101636.56;5248451;28;20556;-72
2022/07/29 11:38:22;;;;;;;5.30;1.80;;;;;;;28.52;61.63;101637.09;5242021;28;20025;-72
2022/07/29 11:44:10;;;;;;;4.15;2.17;;;;;;;29.85;54.85;101632.84;5258237;28;20029;-72
2022/07/29 11:46:56;;;;;;;3.70;1.58;;;;;;;29.83;57.30;101633.13;5245102;28;20492;-73
2022/07/29 11:49:27;;;;;;;3.60;1.88;;;;;;;29.77;56.41;101625.06;5255980;28;20034;-73
2022/07/29 11:52:00;;;;;;;6.40;2.00;;;;;;;29.64;57.71;101629.22;5262362;28;20481;-73
2022/07/29 11:54:33;;;;;;;5.60;2.05;;;;;;;29.51;56.38;101630.56;5256540;28;20056;-72
2022/07/29 11:57:07;;;;;;;7.07;2.10;;;;;;;29.52;56.92;101626.72;5252464;28;20254;-73
2022/07/29 11:59:53;;;;;;;3.42;1.48;;;;;;;29.85;53.56;101630.91;5252162;28;20056;-73